Time;durP1;ratioP1;P1;durP2;ratioP2;P2;SDS_P1;SDS_P2;PMS_P1;PMS_P2;Temp;Humidity;BMP_temperature;BMP_pressure;BME280_temperature;BME280_humidity;BME280_pressure;Samples;Min_cycle;Max_cycle;Signal;HPM_P1;HPM_P2
2022/01/13 00:00:05;;;;;;;19.05;6.93;;;;;;;;;;5036587;28;20024;-68
2022/01/13 00:02:36;;;;;;;20.17;7.18;;;;;;;;;;5036442;28;20037;-68
2022/01/13 00:05:05;;;;;;;17.92;6.75;;;;;;;;;;5036574;28;20017;-68
2022/01/13 00:07:34;;;;;;;15.43;5.78;;;;;;;;;;5035123;28;20099;-68
2022/01/13 00:10:01;;;;;;;18.90;6.05;;;;;;;;;;5036333;28;20046;-68
2022/01/13 00:12:34;;;;;;;19.10;5.32;;;;;;;;;;5036301;28;20036;-68
2022/01/13 00:15:25;;;;;;;16.13;6.28;;;;;;;;;;5036252;28;20025;-67
2022/01/13 00:18:00;;;;;;;15.60;5.57;;;;;;;;;;5036282;28;20040;-68
2022/01/13 00:20:57;;;;;;;13.27;4.50;;;;;;;;;;5036235;28;20431;-67
2022/01/13 00:26:15;;;;;;;15.40;5.88;;;;;;;;;;5034420;28;20029;-68
2022/01/13 00:28:48;;;;;;;18.08;5.80;;;;;;;;;;5034355;28;20052;-68
2022/01/13 00:31:18;;;;;;;13.90;6.32;;;;;;;;;;5034354;28;20021;-68
2022/01/13 00:33:47;;;;;;;15.25;6.10;;;;;;;;;;5034217;28;20120;-68
2022/01/13 00:36:17;;;;;;;22.42;8.60;;;;;;;;;;5034089;28;20098;-67
2022/01/13 00:38:44;;;;;;;18.30;7.95;;;;;;;;;;5017371;28;20037;-68
2022/01/13 00:41:12;;;;;;;18.98;6.40;;;;;;;;;;5017689;28;20038;-68
2022/01/13 00:43:41;;;;;;;15.38;6.70;;;;;;;;;;5034002;28;20044;-68
2022/01/13 00:46:11;;;;;;;17.50;6.80;;;;;;;;;;5033994;28;20031;-68
2022/01/13 00:48:39;;;;;;;23.92;7.00;;;;;;;;;;5033926;28;20025;-68
2022/01/13 00:51:05;;;;;;;21.67;7.80;;;;;;;;;;5017368;28;20044;-68
2022/01/13 00:53:31;;;;;;;20.50;6.50;;;;;;;;;;5034301;28;20044;-68
2022/01/13 00:55:59;;;;;;;33.33;7.15;;;;;;;;;;5034732;28;20053;-68
2022/01/13 00:58:27;;;;;;;22.00;7.25;;;;;;;;;;5035650;28;20100;-68
2022/01/13 01:00:57;;;;;;;23.90;6.78;;;;;;;;;;5035775;28;20025;-68
2022/01/13 01:03:26;;;;;;;19.25;6.93;;;;;;;;;;5035533;28;20423;-68
2022/01/13 01:05:53;;;;;;;26.75;7.32;;;;;;;;;;5034454;28;20428;-68
2022/01/13 01:08:22;;;;;;;31.95;8.23;;;;;;;;;;5035679;28;20025;-68
2022/01/13 01:10:52;;;;;;;26.13;10.57;;;;;;;;;;5035736;28;20030;-68
2022/01/13 01:13:22;;;;;;;29.95;12.15;;;;;;;;;;5035732;28;20030;-69
2022/01/13 01:15:54;;;;;;;32.78;13.57;;;;;;;;;;5035614;28;20076;-69
2022/01/13 01:21:30;;;;;;;55.67;23.13;;;;;;;;;;5035585;28;20084;-68
2022/01/13 01:31:30;;;;;;;244.43;122.53;;;;;;;;;;5035402;28;20291;-68
2022/01/13 01:36:37;;;;;;;123.90;56.70;;;;;;;;;;5035146;28;20025;-68
2022/01/13 01:39:06;;;;;;;88.47;41.00;;;;;;;;;;5035525;28;20108;-67
2022/01/13 01:41:38;;;;;;;78.38;34.05;;;;;;;;;;5034177;28;20423;-68
2022/01/13 01:44:13;;;;;;;100.25;45.42;;;;;;;;;;5035156;28;20108;-67
2022/01/13 01:46:44;;;;;;;124.43;60.72;;;;;;;;;;5035216;28;20014;-68
2022/01/13 01:49:18;;;;;;;150.00;74.25;;;;;;;;;;5035111;28;20085;-68
2022/01/13 01:51:45;;;;;;;173.48;78.35;;;;;;;;;;4996871;28;20046;-68
2022/01/13 01:54:12;;;;;;;134.18;59.85;;;;;;;;;;5013503;28;20068;-68
2022/01/13 01:56:41;;;;;;;86.63;38.85;;;;;;;;;;5013429;28;20052;-67
2022/01/13 01:59:15;;;;;;;148.77;56.40;;;;;;;;;;4993701;28;20171;-67
2022/01/13 02:01:43;;;;;;;103.35;46.70;;;;;;;;;;4993875;28;20048;-67
2022/01/13 02:04:10;;;;;;;102.05;42.92;;;;;;;;;;4974054;28;20155;-68
2022/01/13 02:06:38;;;;;;;134.25;55.65;;;;;;;;;;4974493;28;20046;-68
2022/01/13 02:09:09;;;;;;;106.50;45.78;;;;;;;;;;4977943;28;20396;-68
2022/01/13 02:11:45;;;;;;;126.25;50.92;;;;;;;;;;4977793;28;20039;-68
2022/01/13 02:16:53;;;;;;;102.00;47.83;;;;;;;;;;4977595;28;20112;-68
2022/01/13 02:19:21;;;;;;;109.85;47.20;;;;;;;;;;4977707;28;20079;-68
2022/01/13 02:21:48;;;;;;;99.82;38.33;;;;;;;;;;4980159;28;20101;-68
2022/01/13 02:24:16;;;;;;;87.63;34.15;;;;;;;;;;4996894;28;20051;-68
2022/01/13 02:26:43;;;;;;;88.72;33.83;;;;;;;;;;4996918;28;20449;-68
2022/01/13 02:29:14;;;;;;;100.78;35.90;;;;;;;;;;4982723;28;20034;-68
2022/01/13 02:31:42;;;;;;;75.70;31.95;;;;;;;;;;5016462;28;20427;-67
2022/01/13 02:34:09;;;;;;;74.97;29.55;;;;;;;;;;5016243;28;20053;-72
2022/01/13 02:36:37;;;;;;;83.05;30.77;;;;;;;;;;5016258;28;20062;-67
2022/01/13 02:39:04;;;;;;;82.25;33.92;;;;;;;;;;5016137;28;20433;-68
2022/01/13 02:41:32;;;;;;;79.88;32.35;;;;;;;;;;5016417;28;20455;-69
2022/01/13 02:44:00;;;;;;;82.90;32.95;;;;;;;;;;5016416;28;20038;-68
2022/01/13 02:46:55;;;;;;;100.63;35.63;;;;;;;;;;5016330;28;20040;-68
2022/01/13 02:49:23;;;;;;;80.55;30.13;;;;;;;;;;5015963;28;20026;-69
2022/01/13 02:51:53;;;;;;;96.53;34.40;;;;;;;;;;5016139;28;20042;-67
2022/01/13 02:54:20;;;;;;;92.78;35.33;;;;;;;;;;5025948;28;20044;-68
2022/01/13 02:56:47;;;;;;;107.55;39.28;;;;;;;;;;5037636;28;20030;-70
2022/01/13 02:59:15;;;;;;;109.68;40.00;;;;;;;;;;5037474;28;20053;-68
2022/01/13 03:01:43;;;;;;;114.68;42.70;;;;;;;;;;5037235;28;20369;-67
2022/01/13 03:04:10;;;;;;;105.60;42.25;;;;;;;;;;5037054;28;20029;-68
2022/01/13 03:06:40;;;;;;;99.55;42.42;;;;;;;;;;5037218;28;20140;-67
2022/01/13 03:09:10;;;;;;;97.53;41.17;;;;;;;;;;5036046;28;20091;-67
2022/01/13 03:11:38;;;;;;;102.82;43.13;;;;;;;;;;5037147;28;20075;-67
2022/01/13 03:14:08;;;;;;;451.92;209.48;;;;;;;;;;5037024;28;20095;-68
2022/01/13 03:16:36;;;;;;;104.63;42.35;;;;;;;;;;5037144;28;20048;-68
2022/01/13 03:19:04;;;;;;;113.45;45.85;;;;;;;;;;5036320;28;20427;-68
2022/01/13 03:21:31;;;;;;;155.15;66.68;;;;;;;;;;5037064;28;20033;-68
2022/01/13 03:23:59;;;;;;;471.83;218.48;;;;;;;;;;5035761;28;20025;-68
2022/01/13 03:26:30;;;;;;;334.80;151.98;;;;;;;;;;5037020;28;20049;-68
2022/01/13 03:29:21;;;;;;;540.00;261.60;;;;;;;;;;5036864;28;20107;-69
2022/01/13 03:31:51;;;;;;;417.20;195.75;;;;;;;;;;5036197;28;20104;-68
2022/01/13 03:34:19;;;;;;;361.90;156.65;;;;;;;;;;5036389;28;20045;-68
2022/01/13 03:36:46;;;;;;;312.90;140.57;;;;;;;;;;5036664;28;20026;-68
2022/01/13 03:39:14;;;;;;;265.70;117.03;;;;;;;;;;5035750;28;20025;-68
2022/01/13 03:41:41;;;;;;;177.88;73.90;;;;;;;;;;5035591;28;20038;-68
2022/01/13 03:44:17;;;;;;;148.82;54.83;;;;;;;;;;5036700;28;20078;-68
2022/01/13 03:46:45;;;;;;;188.50;62.58;;;;;;;;;;5036514;28;20026;-68
2022/01/13 03:49:12;;;;;;;191.55;70.38;;;;;;;;;;5036557;28;20330;-68
2022/01/13 03:52:11;;;;;;;190.82;68.72;;;;;;;;;;5036444;28;20045;-68
2022/01/13 03:54:40;;;;;;;182.25;65.85;;;;;;;;;;5036369;28;20021;-68
2022/01/13 03:57:27;;;;;;;222.23;102.18;;;;;;;;;;5035309;28;20428;-68
2022/01/13 04:00:13;;;;;;;233.23;118.88;;;;;;;;;;5035211;28;20029;-68
2022/01/13 04:02:44;;;;;;;208.10;121.80;;;;;;;;;;5034865;28;20049;-67
2022/01/13 04:05:12;;;;;;;145.45;68.57;;;;;;;;;;5036344;28;20022;-67
2022/01/13 04:07:39;;;;;;;117.25;63.97;;;;;;;;;;5036337;28;20029;-67
2022/01/13 04:10:26;;;;;;;112.95;52.50;;;;;;;;;;5036365;28;20018;-68
2022/01/13 04:12:54;;;;;;;111.97;48.03;;;;;;;;;;5036277;28;20104;-68
2022/01/13 04:15:23;;;;;;;96.00;41.45;;;;;;;;;;5036113;28;20414;-68
2022/01/13 04:17:51;;;;;;;113.32;44.05;;;;;;;;;;5035963;28;20375;-68
2022/01/13 04:20:19;;;;;;;112.50;44.00;;;;;;;;;;5034901;28;20036;-68
2022/01/13 04:22:47;;;;;;;116.40;44.80;;;;;;;;;;5036004;28;20095;-68
2022/01/13 04:25:15;;;;;;;111.45;47.70;;;;;;;;;;5034814;28;20025;-68
2022/01/13 04:27:44;;;;;;;153.73;63.08;;;;;;;;;;5036167;28;20021;-68
2022/01/13 04:32:42;;;;;;;171.60;65.45;;;;;;;;;;5035672;28;20036;-68
2022/01/13 04:35:10;;;;;;;175.77;75.07;;;;;;;;;;5035853;28;20029;-68
2022/01/13 04:37:38;;;;;;;171.77;68.82;;;;;;;;;;5035857;28;20025;-68
2022/01/13 04:40:09;;;;;;;218.48;86.28;;;;;;;;;;5035645;28;20078;-68
2022/01/13 04:42:37;;;;;;;215.27;84.07;;;;;;;;;;5035600;28;20346;-67
2022/01/13 04:45:05;;;;;;;196.40;82.45;;;;;;;;;;5035656;28;20461;-68
2022/01/13 04:47:33;;;;;;;154.40;60.20;;;;;;;;;;5035703;28;20422;-68
2022/01/13 04:50:00;;;;;;;143.75;68.03;;;;;;;;;;5035278;28;20292;-68
2022/01/13 04:52:27;;;;;;;145.05;63.17;;;;;;;;;;5035610;28;20500;-67
2022/01/13 04:54:55;;;;;;;121.72;55.20;;;;;;;;;;5035980;28;20063;-67
2022/01/13 04:57:23;;;;;;;94.95;42.55;;;;;;;;;;5034479;28;20409;-67
2022/01/13 04:59:50;;;;;;;154.68;54.88;;;;;;;;;;5035632;28;20021;-67
2022/01/13 05:02:18;;;;;;;124.28;51.92;;;;;;;;;;5035504;28;20025;-68
2022/01/13 05:04:45;;;;;;;103.22;43.22;;;;;;;;;;5035601;28;20032;-67
2022/01/13 05:07:13;;;;;;;91.20;38.50;;;;;;;;;;5035499;28;20029;-67
2022/01/13 05:09:40;;;;;;;146.55;62.35;;;;;;;;;;5035520;28;20029;-67
2022/01/13 05:12:08;;;;;;;121.22;47.40;;;;;;;;;;5035219;28;20044;-67
2022/01/13 05:14:36;;;;;;;105.00;46.40;;;;;;;;;;5034324;28;20354;-67
2022/01/13 05:19:40;;;;;;;126.88;55.53;;;;;;;;;;5035460;28;20022;-68
2022/01/13 05:24:38;;;;;;;94.10;40.90;;;;;;;;;;5035441;28;20049;-67
2022/01/13 05:27:06;;;;;;;99.53;40.35;;;;;;;;;;5035206;28;20022;-66
2022/01/13 05:29:34;;;;;;;137.85;64.07;;;;;;;;;;5035420;28;20013;-66
2022/01/13 05:32:02;;;;;;;133.15;63.75;;;;;;;;;;5035287;28;20021;-66
2022/01/13 05:34:32;;;;;;;129.07;61.00;;;;;;;;;;5035226;28;20108;-66
2022/01/13 05:36:59;;;;;;;143.25;61.90;;;;;;;;;;5035274;28;20026;-68
2022/01/13 05:39:27;;;;;;;148.60;67.47;;;;;;;;;;5035531;28;20022;-66
2022/01/13 05:41:54;;;;;;;144.02;62.75;;;;;;;;;;5035758;28;20033;-67
2022/01/13 05:44:22;;;;;;;142.95;61.58;;;;;;;;;;5037089;28;20033;-67
2022/01/13 05:46:50;;;;;;;152.35;62.22;;;;;;;;;;5038859;28;20014;-67
2022/01/13 05:49:17;;;;;;;147.02;64.28;;;;;;;;;;5039040;28;20381;-67
2022/01/13 05:51:43;;;;;;;115.57;50.92;;;;;;;;;;5037344;28;20120;-69
2022/01/13 05:54:10;;;;;;;88.38;36.97;;;;;;;;;;5038691;28;20415;-69
2022/01/13 05:56:37;;;;;;;178.73;105.65;;;;;;;;;;5039030;28;20030;-67
2022/01/13 05:59:05;;;;;;;340.40;190.07;;;;;;;;;;5038944;28;20025;-66
2022/01/13 06:01:32;;;;;;;129.63;63.90;;;;;;;;;;5039029;28;20029;-67
2022/01/13 06:04:03;;;;;;;89.25;43.60;;;;;;;;;;5038784;28;20033;-66
2022/01/13 06:06:31;;;;;;;85.57;39.40;;;;;;;;;;5038502;28;20311;-66
2022/01/13 06:08:58;;;;;;;91.50;38.88;;;;;;;;;;5038665;28;20461;-67
2022/01/13 06:11:37;;;;;;;84.70;40.38;;;;;;;;;;5038616;28;20104;-66
2022/01/13 06:14:05;;;;;;;93.57;42.05;;;;;;;;;;5037698;28;20323;-69
2022/01/13 06:16:33;;;;;;;94.95;39.92;;;;;;;;;;5038786;28;20056;-69
2022/01/13 06:19:01;;;;;;;88.65;39.60;;;;;;;;;;5038886;28;20099;-69
2022/01/13 06:21:28;;;;;;;87.40;41.22;;;;;;;;;;5038692;28;20094;-68
2022/01/13 06:23:56;;;;;;;91.95;40.38;;;;;;;;;;5037374;28;20036;-68
2022/01/13 06:26:24;;;;;;;93.03;41.63;;;;;;;;;;5038644;28;20326;-69
2022/01/13 06:28:55;;;;;;;92.25;41.03;;;;;;;;;;5037511;28;20025;-68
2022/01/13 06:31:22;;;;;;;92.43;44.53;;;;;;;;;;5038023;28;20021;-68
2022/01/13 06:33:49;;;;;;;103.43;43.20;;;;;;;;;;5037381;28;20032;-68
2022/01/13 06:36:17;;;;;;;100.82;44.83;;;;;;;;;;5037989;28;20315;-67
2022/01/13 06:38:48;;;;;;;98.30;41.78;;;;;;;;;;5038289;28;20349;-68
2022/01/13 06:41:16;;;;;;;102.35;45.42;;;;;;;;;;5037142;28;20041;-68
2022/01/13 06:43:44;;;;;;;106.63;45.55;;;;;;;;;;5037576;28;20037;-68
2022/01/13 06:46:15;;;;;;;100.68;46.17;;;;;;;;;;5037630;28;20017;-67
2022/01/13 06:48:43;;;;;;;102.78;45.42;;;;;;;;;;5037601;28;20040;-67
2022/01/13 06:51:10;;;;;;;88.50;41.63;;;;;;;;;;5037544;28;20582;-67
2022/01/13 06:53:37;;;;;;;90.57;39.35;;;;;;;;;;5036182;28;20036;-69
2022/01/13 06:56:05;;;;;;;85.10;39.53;;;;;;;;;;5037461;28;20032;-67
2022/01/13 06:58:32;;;;;;;78.55;39.47;;;;;;;;;;5037655;28;20044;-69
2022/01/13 07:01:00;;;;;;;87.63;41.28;;;;;;;;;;5037587;28;20021;-70
2022/01/13 07:03:27;;;;;;;82.13;43.90;;;;;;;;;;5037159;28;20040;-69
2022/01/13 07:05:55;;;;;;;93.97;43.00;;;;;;;;;;5037409;28;20020;-69
2022/01/13 07:08:23;;;;;;;109.28;43.88;;;;;;;;;;5037640;28;20029;-69
2022/01/13 07:10:50;;;;;;;104.28;45.38;;;;;;;;;;5036143;28;20426;-69
2022/01/13 07:13:18;;;;;;;102.25;44.25;;;;;;;;;;5036133;28;20037;-68
2022/01/13 07:15:46;;;;;;;102.38;47.15;;;;;;;;;;5037560;28;20067;-67
2022/01/13 07:18:13;;;;;;;101.25;48.58;;;;;;;;;;5036004;28;20116;-67
2022/01/13 07:20:43;;;;;;;102.10;47.58;;;;;;;;;;5037414;28;20029;-69
2022/01/13 07:23:11;;;;;;;112.93;49.50;;;;;;;;;;5037049;28;20038;-69
2022/01/13 07:25:38;;;;;;;177.30;86.25;;;;;;;;;;5034889;28;20076;-69
2022/01/13 07:28:06;;;;;;;193.10;106.30;;;;;;;;;;5037138;28;20492;-68
2022/01/13 07:30:34;;;;;;;191.23;103.00;;;;;;;;;;5037051;28;20422;-68
2022/01/13 07:33:02;;;;;;;190.85;109.05;;;;;;;;;;5035703;28;20074;-69
2022/01/13 07:35:29;;;;;;;104.63;54.25;;;;;;;;;;5036067;28;20025;-69
2022/01/13 07:37:58;;;;;;;87.32;41.78;;;;;;;;;;5036899;28;20032;-67
2022/01/13 07:40:25;;;;;;;283.10;144.43;;;;;;;;;;5035811;28;20033;-67
2022/01/13 07:42:53;;;;;;;143.40;71.13;;;;;;;;;;5035868;28;20029;-69
2022/01/13 07:45:20;;;;;;;73.75;33.35;;;;;;;;;;5037033;28;20025;-67
2022/01/13 07:47:48;;;;;;;78.18;30.25;;;;;;;;;;5036573;28;20092;-67
2022/01/13 07:50:15;;;;;;;70.20;33.13;;;;;;;;;;5036214;28;20044;-68
2022/01/13 07:52:43;;;;;;;141.07;78.28;;;;;;;;;;5036361;28;20218;-68
2022/01/13 07:55:11;;;;;;;78.93;36.50;;;;;;;;;;5036415;28;20030;-69
2022/01/13 07:57:39;;;;;;;85.60;33.63;;;;;;;;;;5035396;28;20029;-68
2022/01/13 08:00:08;;;;;;;71.68;31.65;;;;;;;;;;5036218;28;20357;-68
2022/01/13 08:02:35;;;;;;;59.72;28.83;;;;;;;;;;5036323;28;20401;-68
2022/01/13 08:05:04;;;;;;;66.22;30.35;;;;;;;;;;5035918;28;20037;-68
2022/01/13 08:07:31;;;;;;;71.05;30.13;;;;;;;;;;5036000;28;20025;-68
2022/01/13 08:09:59;;;;;;;58.08;29.58;;;;;;;;;;5035203;28;20044;-68
2022/01/13 08:12:26;;;;;;;60.95;28.70;;;;;;;;;;5036059;28;20017;-68
2022/01/13 08:14:54;;;;;;;71.30;29.73;;;;;;;;;;5035125;28;20029;-67
2022/01/13 08:20:09;;;;;;;61.97;26.38;;;;;;;;;;5036200;28;20040;-69
2022/01/13 08:22:37;;;;;;;68.72;28.33;;;;;;;;;;5034804;28;20125;-68
2022/01/13 08:25:04;;;;;;;62.75;28.48;;;;;;;;;;5035743;28;20045;-67
2022/01/13 08:27:32;;;;;;;75.47;29.88;;;;;;;;;;5035807;28;20437;-68
2022/01/13 08:30:00;;;;;;;57.25;26.85;;;;;;;;;;5034720;28;20026;-68
2022/01/13 08:32:27;;;;;;;57.13;27.60;;;;;;;;;;5034780;28;20438;-67
2022/01/13 08:34:55;;;;;;;57.20;23.23;;;;;;;;;;5035535;28;20053;-68
2022/01/13 08:37:23;;;;;;;52.58;20.33;;;;;;;;;;5035817;28;20476;-68
2022/01/13 08:39:55;;;;;;;73.18;28.23;;;;;;;;;;5036136;28;20045;-68
2022/01/13 08:42:24;;;;;;;69.50;27.33;;;;;;;;;;5035637;28;20017;-67
2022/01/13 08:44:52;;;;;;;61.53;26.23;;;;;;;;;;5034582;28;20045;-68
2022/01/13 08:47:19;;;;;;;47.70;20.50;;;;;;;;;;5034527;28;20021;-68
2022/01/13 08:49:47;;;;;;;157.20;64.10;;;;;;;;;;5035225;28;20029;-67
2022/01/13 08:52:15;;;;;;;45.72;18.13;;;;;;;;;;5035382;28;20327;-70
2022/01/13 08:54:45;;;;;;;47.67;17.50;;;;;;;;;;5035409;28;20029;-67
2022/01/13 08:57:13;;;;;;;46.75;20.45;;;;;;;;;;5035099;28;20074;-67
2022/01/13 08:59:41;;;;;;;65.85;24.48;;;;;;;;;;5035538;28;20029;-68
2022/01/13 09:02:09;;;;;;;57.83;28.77;;;;;;;;;;5034240;28;20429;-67
2022/01/13 09:04:37;;;;;;;51.00;24.13;;;;;;;;;;5035405;28;20030;-67
2022/01/13 09:07:04;;;;;;;57.67;25.65;;;;;;;;;;5035505;28;20060;-66
2022/01/13 09:09:35;;;;;;;54.78;24.23;;;;;;;;;;5035022;28;20021;-70
2022/01/13 09:12:03;;;;;;;80.07;26.77;;;;;;;;;;5034093;28;20018;-68
2022/01/13 09:14:32;;;;;;;49.53;21.27;;;;;;;;;;5035276;28;20442;-67
2022/01/13 09:17:01;;;;;;;63.13;24.25;;;;;;;;;;5035695;28;20021;-68
2022/01/13 09:19:28;;;;;;;73.90;31.20;;;;;;;;;;5038595;28;20052;-70
2022/01/13 09:21:57;;;;;;;47.45;19.02;;;;;;;;;;5038348;28;20056;-70
2022/01/13 09:24:24;;;;;;;199.82;58.20;;;;;;;;;;5038926;28;20029;-69
2022/01/13 09:26:52;;;;;;;39.25;16.50;;;;;;;;;;5039207;28;20022;-70
2022/01/13 09:29:19;;;;;;;42.58;18.80;;;;;;;;;;5039234;28;20319;-69
2022/01/13 09:31:47;;;;;;;38.83;16.85;;;;;;;;;;5038003;28;20415;-67
2022/01/13 09:34:14;;;;;;;35.58;15.10;;;;;;;;;;5037890;28;20195;-69
2022/01/13 09:36:42;;;;;;;34.85;13.80;;;;;;;;;;5037698;28;20029;-69
2022/01/13 09:39:10;;;;;;;26.77;12.13;;;;;;;;;;5038903;28;20331;-69
2022/01/13 09:41:42;;;;;;;44.45;16.80;;;;;;;;;;5038712;28;20136;-68
2022/01/13 09:44:10;;;;;;;37.22;16.08;;;;;;;;;;5038552;28;20087;-68
2022/01/13 09:46:38;;;;;;;36.60;14.52;;;;;;;;;;5038987;28;20079;-69
2022/01/13 09:49:07;;;;;;;37.42;13.52;;;;;;;;;;5039005;28;20056;-71
2022/01/13 09:51:35;;;;;;;34.53;13.52;;;;;;;;;;5038838;28;20112;-68
2022/01/13 09:54:02;;;;;;;41.17;17.17;;;;;;;;;;5038703;28;20051;-68
2022/01/13 09:56:29;;;;;;;56.47;14.55;;;;;;;;;;5038689;28;20030;-69
2022/01/13 09:58:57;;;;;;;34.05;13.60;;;;;;;;;;5038555;28;20025;-70
2022/01/13 10:01:24;;;;;;;33.88;13.95;;;;;;;;;;5038712;28;20418;-68
2022/01/13 10:03:52;;;;;;;34.92;13.70;;;;;;;;;;5038692;28;20445;-68
2022/01/13 10:06:21;;;;;;;35.33;15.73;;;;;;;;;;5038457;28;20071;-68
2022/01/13 10:08:52;;;;;;;46.65;20.40;;;;;;;;;;5038452;28;20021;-69
2022/01/13 10:11:40;;;;;;;41.17;19.48;;;;;;;;;;5038369;28;20092;-68
2022/01/13 10:16:23;;;;;;;54.28;19.80;;;;;;;;;;5037391;28;20056;-69
2022/01/13 10:17:16;;;;;;;45.70;19.08;;;;;;;;;;5038374;28;20434;-68
2022/01/13 10:19:44;;;;;;;53.00;23.63;;;;;;;;;;5038426;28;20099;-67
2022/01/13 10:22:16;;;;;;;53.28;24.00;;;;;;;;;;5038002;28;20037;-67
2022/01/13 10:24:48;;;;;;;56.80;27.35;;;;;;;;;;5038069;28;20104;-70
2022/01/13 10:27:23;;;;;;;68.30;24.55;;;;;;;;;;5037285;28;20028;-68
2022/01/13 10:29:57;;;;;;;62.22;23.90;;;;;;;;;;5037947;28;20108;-69
2022/01/13 10:32:34;;;;;;;54.97;19.63;;;;;;;;;;5038560;28;20024;-69
2022/01/13 10:35:05;;;;;;;67.43;20.83;;;;;;;;;;5037336;28;20021;-68
2022/01/13 10:37:37;;;;;;;60.33;19.40;;;;;;;;;;5037116;28;20044;-68
2022/01/13 10:40:11;;;;;;;41.40;17.45;;;;;;;;;;5038061;28;20104;-68
2022/01/13 10:45:26;;;;;;;72.43;31.98;;;;;;;;;;5038093;28;20030;-67
2022/01/13 10:48:00;;;;;;;63.95;26.25;;;;;;;;;;5038167;28;20022;-68
2022/01/13 10:50:28;;;;;;;66.50;28.17;;;;;;;;;;5037883;28;20037;-68
2022/01/13 10:52:54;;;;;;;86.05;35.53;;;;;;;;;;5037883;28;20032;-68
2022/01/13 10:55:24;;;;;;;71.72;23.27;;;;;;;;;;5036767;28;20307;-68
2022/01/13 10:57:52;;;;;;;67.50;25.23;;;;;;;;;;5036700;28;20025;-68
2022/01/13 11:00:22;;;;;;;58.92;22.50;;;;;;;;;;5037622;28;20096;-69
2022/01/13 11:03:10;;;;;;;64.57;24.38;;;;;;;;;;5037750;28;20407;-71
2022/01/13 11:05:56;;;;;;;81.25;33.30;;;;;;;;;;5031053;28;20038;-69
2022/01/13 11:08:38;;;;;;;96.13;37.30;;;;;;;;;;5037452;28;20028;-68
2022/01/13 11:11:05;;;;;;;95.10;42.90;;;;;;;;;;5037506;28;20021;-68
2022/01/13 11:13:38;;;;;;;132.68;50.78;;;;;;;;;;5036023;28;20055;-67
2022/01/13 11:16:06;;;;;;;131.85;56.35;;;;;;;;;;5037140;28;20025;-68
2022/01/13 11:18:34;;;;;;;157.00;68.32;;;;;;;;;;5037107;28;20033;-68
2022/01/13 11:21:02;;;;;;;156.43;70.38;;;;;;;;;;5037183;28;20079;-67
2022/01/13 11:23:30;;;;;;;176.85;72.45;;;;;;;;;;5037013;28;20032;-67
2022/01/13 11:25:58;;;;;;;197.13;74.85;;;;;;;;;;5036848;28;20021;-68
2022/01/13 11:28:25;;;;;;;169.93;67.57;;;;;;;;;;5036015;28;20053;-67
2022/01/13 11:30:53;;;;;;;155.35;58.40;;;;;;;;;;5037177;28;20028;-67
2022/01/13 11:33:22;;;;;;;140.88;54.92;;;;;;;;;;5035733;28;20025;-68
2022/01/13 11:35:55;;;;;;;135.60;54.67;;;;;;;;;;5036792;28;20026;-67
2022/01/13 11:38:30;;;;;;;138.40;55.35;;;;;;;;;;5036749;28;20029;-67
2022/01/13 11:41:02;;;;;;;133.55;56.45;;;;;;;;;;5036021;28;20029;-67
2022/01/13 11:43:42;;;;;;;149.73;59.70;;;;;;;;;;5036524;28;20102;-67
2022/01/13 11:46:19;;;;;;;138.48;59.72;;;;;;;;;;5035567;28;20308;-67
2022/01/13 11:49:08;;;;;;;153.07;62.45;;;;;;;;;;5036654;28;20025;-67
2022/01/13 11:51:42;;;;;;;131.27;53.65;;;;;;;;;;5036599;28;20037;-67
2022/01/13 11:54:10;;;;;;;116.43;46.20;;;;;;;;;;5035418;28;20194;-67
2022/01/13 11:56:37;;;;;;;99.35;43.75;;;;;;;;;;5036523;28;20029;-66
2022/01/13 11:59:10;;;;;;;102.22;39.70;;;;;;;;;;5036424;28;20406;-66
2022/01/13 12:01:38;;;;;;;82.93;35.33;;;;;;;;;;5036510;28;20033;-66
2022/01/13 12:04:07;;;;;;;97.68;33.83;;;;;;;;;;5035239;28;20088;-66
2022/01/13 12:06:48;;;;;;;77.45;30.33;;;;;;;;;;5036245;28;20025;-67
2022/01/13 12:09:29;;;;;;;80.10;30.33;;;;;;;;;;4997706;28;20320;-67
2022/01/13 12:11:57;;;;;;;75.68;29.92;;;;;;;;;;5014251;28;20033;-68
2022/01/13 12:14:32;;;;;;;71.32;31.63;;;;;;;;;;4997891;28;20033;-67
2022/01/13 12:17:11;;;;;;;88.43;31.95;;;;;;;;;;5014481;28;20060;-67
2022/01/13 12:19:44;;;;;;;77.25;29.92;;;;;;;;;;5014409;28;20172;-68
2022/01/13 12:22:18;;;;;;;77.90;30.88;;;;;;;;;;5014426;28;20030;-68
2022/01/13 12:25:01;;;;;;;71.85;28.30;;;;;;;;;;5014187;28;20029;-68
2022/01/13 12:27:49;;;;;;;74.75;28.98;;;;;;;;;;5014249;28;20305;-68
2022/01/13 12:30:25;;;;;;;83.32;30.02;;;;;;;;;;4997521;28;20108;-69
2022/01/13 12:32:56;;;;;;;69.20;31.50;;;;;;;;;;4997390;28;20331;-67
2022/01/13 12:35:38;;;;;;;81.13;32.80;;;;;;;;;;5014283;28;20038;-67
2022/01/13 12:38:21;;;;;;;81.80;33.90;;;;;;;;;;5014007;28;20431;-68
2022/01/13 12:41:14;;;;;;;88.32;35.47;;;;;;;;;;5030266;28;20049;-67
2022/01/13 12:46:24;;;;;;;435.83;209.35;;;;;;;;;;5035822;28;20480;-68
2022/01/13 12:48:53;;;;;;;408.55;174.75;;;;;;;;;;4997552;28;20335;-68
2022/01/13 12:51:24;;;;;;;553.05;264.38;;;;;;;;;;4997537;28;20034;-67
2022/01/13 12:53:51;;;;;;;581.75;279.73;;;;;;;;;;5014061;28;20025;-68
2022/01/13 12:56:22;;;;;;;576.13;289.17;;;;;;;;;;4997774;28;20086;-68
2022/01/13 12:59:00;;;;;;;359.55;161.05;;;;;;;;;;5014168;28;20054;-68
2022/01/13 13:01:30;;;;;;;307.30;148.82;;;;;;;;;;4997806;28;20072;-68
2022/01/13 13:04:10;;;;;;;367.02;182.80;;;;;;;;;;5014555;28;20042;-67
2022/01/13 13:06:40;;;;;;;309.92;144.52;;;;;;;;;;5014571;28;20057;-67
2022/01/13 13:09:14;;;;;;;293.52;138.10;;;;;;;;;;5014591;28;20073;-67
2022/01/13 13:11:43;;;;;;;269.17;128.18;;;;;;;;;;4998221;28;20105;-68
2022/01/13 13:14:18;;;;;;;336.20;159.38;;;;;;;;;;4998012;28;20038;-68
2022/01/13 13:16:50;;;;;;;349.30;157.80;;;;;;;;;;5014476;28;20034;-69
2022/01/13 13:19:18;;;;;;;370.25;173.43;;;;;;;;;;5014428;28;20146;-69
2022/01/13 13:21:51;;;;;;;443.35;211.65;;;;;;;;;;5014732;28;20041;-67
2022/01/13 13:24:24;;;;;;;412.77;198.85;;;;;;;;;;5015124;28;20100;-67
2022/01/13 13:26:52;;;;;;;502.20;241.23;;;;;;;;;;4998854;28;20025;-68
2022/01/13 13:29:26;;;;;;;398.88;193.50;;;;;;;;;;5009857;28;20061;-68
2022/01/13 13:31:57;;;;;;;472.70;229.88;;;;;;;;;;5016157;28;20026;-67
2022/01/13 13:34:29;;;;;;;640.30;325.73;;;;;;;;;;5016238;28;20030;-68
2022/01/13 13:36:56;;;;;;;618.60;316.02;;;;;;;;;;5031670;28;20038;-68
2022/01/13 13:39:25;;;;;;;579.92;295.42;;;;;;;;;;5037071;28;20064;-68
2022/01/13 13:42:01;;;;;;;514.20;258.98;;;;;;;;;;5051860;28;20060;-68
2022/01/13 13:44:38;;;;;;;524.47;261.70;;;;;;;;;;5050923;28;20117;-68
2022/01/13 13:47:15;;;;;;;579.67;292.83;;;;;;;;;;5047291;28;20067;-69
2022/01/13 13:49:46;;;;;;;619.85;342.00;;;;;;;;;;5035185;28;20026;-68
2022/01/13 13:52:16;;;;;;;653.80;359.63;;;;;;;;;;5040115;28;20103;-68
2022/01/13 13:54:53;;;;;;;804.33;403.10;;;;;;;;;;5042878;28;20030;-68
2022/01/13 13:57:24;;;;;;;533.65;266.63;;;;;;;;;;5041210;28;20029;-67
2022/01/13 13:59:56;;;;;;;547.22;282.40;;;;;;;;;;5037954;28;20121;-68
2022/01/13 14:02:38;;;;;;;469.10;228.45;;;;;;;;;;5036039;28;20056;-68
2022/01/13 14:05:11;;;;;;;490.55;239.48;;;;;;;;;;5039659;28;20029;-69
2022/01/13 14:07:41;;;;;;;523.30;258.30;;;;;;;;;;5039714;28;20497;-68
2022/01/13 14:10:18;;;;;;;501.33;243.73;;;;;;;;;;5039550;28;20025;-68
2022/01/13 14:13:00;;;;;;;521.20;250.82;;;;;;;;;;5039096;28;20478;-68
2022/01/13 14:15:33;;;;;;;526.33;252.88;;;;;;;;;;5038952;28;20028;-68
2022/01/13 14:18:14;;;;;;;493.27;239.60;;;;;;;;;;5038741;28;20028;-68
2022/01/13 14:20:50;;;;;;;528.47;251.70;;;;;;;;;;5038678;28;20032;-68
2022/01/13 14:23:25;;;;;;;521.88;251.65;;;;;;;;;;5038346;28;20119;-68
2022/01/13 14:26:12;;;;;;;479.88;221.52;;;;;;;;;;5038673;28;20092;-68
2022/01/13 14:28:51;;;;;;;417.33;193.68;;;;;;;;;;5038494;28;20085;-68
2022/01/13 14:31:19;;;;;;;477.83;217.25;;;;;;;;;;5000125;28;20033;-68
2022/01/13 14:33:47;;;;;;;473.05;228.00;;;;;;;;;;5016677;28;20038;-68
2022/01/13 14:36:17;;;;;;;505.55;243.40;;;;;;;;;;5016726;28;20042;-68
2022/01/13 14:39:03;;;;;;;527.17;249.02;;;;;;;;;;5016389;28;20030;-68
2022/01/13 14:41:39;;;;;;;562.65;270.13;;;;;;;;;;5016357;28;20057;-67
2022/01/13 14:44:21;;;;;;;532.88;262.92;;;;;;;;;;5016662;28;20108;-67
2022/01/13 14:47:14;;;;;;;500.23;240.57;;;;;;;;;;5016320;28;20117;-67
2022/01/13 14:49:41;;;;;;;506.65;240.48;;;;;;;;;;5016371;28;20073;-67
2022/01/13 14:52:11;;;;;;;520.72;253.45;;;;;;;;;;5016170;28;20049;-66
2022/01/13 14:54:38;;;;;;;494.50;239.52;;;;;;;;;;5016261;28;20100;-67
2022/01/13 14:57:10;;;;;;;504.13;246.00;;;;;;;;;;5016426;28;20073;-67
2022/01/13 14:59:38;;;;;;;515.53;240.93;;;;;;;;;;5016118;28;20025;-68
2022/01/13 15:02:06;;;;;;;450.33;216.98;;;;;;;;;;5025386;28;20034;-68